sensor_id;sensor_type;location;lat;lon;timestamp;pressure;altitude;pressure_sealevel;temperature;humidity
33697;BME280;20031;43.416;23.232;2023-03-11T00:00:31;98052.84;;;12.43;79.85
33697;BME280;20031;43.416;23.232;2023-03-11T00:02:59;98048.41;;;12.43;80.09
33697;BME280;20031;43.416;23.232;2023-03-11T00:05:27;98049.78;;;12.46;79.66
33697;BME280;20031;43.416;23.232;2023-03-11T00:07:53;98048.78;;;12.47;79.07
33697;BME280;20031;43.416;23.232;2023-03-11T00:10:22;98045.16;;;12.48;78.52
33697;BME280;20031;43.416;23.232;2023-03-11T00:12:48;98047.56;;;12.49;78.03
33697;BME280;20031;43.416;23.232;2023-03-11T00:15:14;98049.94;;;12.51;78.04
33697;BME280;20031;43.416;23.232;2023-03-11T00:17:40;98047.56;;;12.49;77.32
33697;BME280;20031;43.416;23.232;2023-03-11T00:20:09;98043.56;;;12.47;77.47
33697;BME280;20031;43.416;23.232;2023-03-11T00:22:38;98038.56;;;12.45;77.37
33697;BME280;20031;43.416;23.232;2023-03-11T00:25:04;98030.34;;;12.42;77.47
33697;BME280;20031;43.416;23.232;2023-03-11T00:27:29;98032.97;;;12.42;77.49
33697;BME280;20031;43.416;23.232;2023-03-11T00:29:54;98019.69;;;12.43;77.46
33697;BME280;20031;43.416;23.232;2023-03-11T00:32:20;98014.91;;;12.40;77.41
33697;BME280;20031;43.416;23.232;2023-03-11T00:34:45;98017.19;;;12.37;77.67
33697;BME280;20031;43.416;23.232;2023-03-11T00:37:11;98018.63;;;12.33;78.44
33697;BME280;20031;43.416;23.232;2023-03-11T00:39:36;98006.03;;;12.30;78.45
33697;BME280;20031;43.416;23.232;2023-03-11T00:42:02;98002.84;;;12.28;79.13
33697;BME280;20031;43.416;23.232;2023-03-11T00:44:28;98002.47;;;12.24;79.35
33697;BME280;20031;43.416;23.232;2023-03-11T00:46:53;98003.69;;;12.22;79.63
33697;BME280;20031;43.416;23.232;2023-03-11T00:49:19;98006.53;;;12.21;79.04
33697;BME280;20031;43.416;23.232;2023-03-11T00:51:44;98000.53;;;12.20;78.63
33697;BME280;20031;43.416;23.232;2023-03-11T00:54:09;97996.31;;;12.19;78.49
33697;BME280;20031;43.416;23.232;2023-03-11T00:56:35;97999.72;;;12.20;78.32
33697;BME280;20031;43.416;23.232;2023-03-11T00:59:00;97997.75;;;12.15;78.63
33697;BME280;20031;43.416;23.232;2023-03-11T01:01:26;97986.19;;;12.11;79.17
33697;BME280;20031;43.416;23.232;2023-03-11T01:03:51;97994.84;;;12.05;79.25
33697;BME280;20031;43.416;23.232;2023-03-11T01:06:17;97990.28;;;12.01;79.93
33697;BME280;20031;43.416;23.232;2023-03-11T01:08:42;97982.34;;;11.96;80.14
33697;BME280;20031;43.416;23.232;2023-03-11T01:11:08;97979.56;;;11.91;80.71
33697;BME280;20031;43.416;23.232;2023-03-11T01:13:33;97973.41;;;11.85;81.34
33697;BME280;20031;43.416;23.232;2023-03-11T01:15:59;97967.25;;;11.80;81.43
33697;BME280;20031;43.416;23.232;2023-03-11T01:18:25;97967.31;;;11.73;81.82
33697;BME280;20031;43.416;23.232;2023-03-11T01:20:51;97962.97;;;11.68;81.75
33697;BME280;20031;43.416;23.232;2023-03-11T01:23:17;97963.63;;;11.63;82.25
33697;BME280;20031;43.416;23.232;2023-03-11T01:25:43;97961.69;;;11.59;82.43
33697;BME280;20031;43.416;23.232;2023-03-11T01:28:09;97970.13;;;11.54;82.43
33697;BME280;20031;43.416;23.232;2023-03-11T01:30:36;97979.19;;;11.52;82.80
33697;BME280;20031;43.416;23.232;2023-03-11T01:33:02;97975.41;;;11.48;82.68
33697;BME280;20031;43.416;23.232;2023-03-11T01:35:29;97971.38;;;11.45;83.24
33697;BME280;20031;43.416;23.232;2023-03-11T01:37:56;97967.16;;;11.44;83.25
33697;BME280;20031;43.416;23.232;2023-03-11T01:40:34;97961.16;;;11.44;83.36
33697;BME280;20031;43.416;23.232;2023-03-11T01:43:01;97945.53;;;11.44;83.89
33697;BME280;20031;43.416;23.232;2023-03-11T01:48:00;97952.03;;;11.35;83.76
33697;BME280;20031;43.416;23.232;2023-03-11T01:50:33;97956.28;;;11.29;83.84
33697;BME280;20031;43.416;23.232;2023-03-11T01:53:01;97955.34;;;11.24;83.96
33697;BME280;20031;43.416;23.232;2023-03-11T01:55:27;97960.63;;;11.18;84.05
33697;BME280;20031;43.416;23.232;2023-03-11T01:57:54;97964.25;;;11.10;83.85
33697;BME280;20031;43.416;23.232;2023-03-11T02:00:20;97979.53;;;11.07;84.05
33697;BME280;20031;43.416;23.232;2023-03-11T02:02:51;97979.97;;;11.04;84.45
33697;BME280;20031;43.416;23.232;2023-03-11T02:05:19;97985.81;;;10.99;84.64
33697;BME280;20031;43.416;23.232;2023-03-11T02:07:45;97989.19;;;11.00;85.77
33697;BME280;20031;43.416;23.232;2023-03-11T02:10:12;97986.00;;;10.98;86.02
33697;BME280;20031;43.416;23.232;2023-03-11T02:12:38;97997.22;;;10.98;86.58
33697;BME280;20031;43.416;23.232;2023-03-11T02:15:05;98006.44;;;11.01;86.80
33697;BME280;20031;43.416;23.232;2023-03-11T02:17:31;98006.44;;;11.01;86.92
33697;BME280;20031;43.416;23.232;2023-03-11T02:20:18;98004.03;;;10.99;87.40
33697;BME280;20031;43.416;23.232;2023-03-11T02:22:46;98015.25;;;11.00;87.28
33697;BME280;20031;43.416;23.232;2023-03-11T02:28:14;98014.47;;;10.99;88.45
33697;BME280;20031;43.416;23.232;2023-03-11T02:30:42;98016.03;;;11.00;88.33
33697;BME280;20031;43.416;23.232;2023-03-11T02:33:09;98031.22;;;11.03;88.60
33697;BME280;20031;43.416;23.232;2023-03-11T02:35:35;98038.06;;;11.04;88.91
33697;BME280;20031;43.416;23.232;2023-03-11T02:38:00;98036.84;;;11.07;89.12
33697;BME280;20031;43.416;23.232;2023-03-11T02:42:57;98051.25;;;11.09;89.26
33697;BME280;20031;43.416;23.232;2023-03-11T02:45:25;98053.44;;;11.12;89.48
33697;BME280;20031;43.416;23.232;2023-03-11T02:47:53;98057.41;;;11.15;89.74
33697;BME280;20031;43.416;23.232;2023-03-11T02:50:20;98049.19;;;11.18;89.95
33697;BME280;20031;43.416;23.232;2023-03-11T02:52:47;98059.97;;;11.21;89.58
33697;BME280;20031;43.416;23.232;2023-03-11T02:55:13;98064.19;;;11.22;90.03
33697;BME280;20031;43.416;23.232;2023-03-11T02:57:41;98069.19;;;11.23;89.80
33697;BME280;20031;43.416;23.232;2023-03-11T03:00:07;98073.38;;;11.24;90.47
33697;BME280;20031;43.416;23.232;2023-03-11T03:02:39;98074.19;;;11.25;89.89
33697;BME280;20031;43.416;23.232;2023-03-11T03:05:05;98081.00;;;11.26;90.18
33697;BME280;20031;43.416;23.232;2023-03-11T03:07:31;98075.19;;;11.24;90.15
33697;BME280;20031;43.416;23.232;2023-03-11T03:09:57;98065.19;;;11.21;90.03
33697;BME280;20031;43.416;23.232;2023-03-11T03:12:22;98064.63;;;11.19;90.01
33697;BME280;20031;43.416;23.232;2023-03-11T03:14:47;98066.41;;;11.18;90.23
33697;BME280;20031;43.416;23.232;2023-03-11T03:17:13;98065.03;;;11.16;90.16
33697;BME280;20031;43.416;23.232;2023-03-11T03:19:38;98059.22;;;11.14;90.39
33697;BME280;20031;43.416;23.232;2023-03-11T03:22:04;98062.81;;;11.13;90.31
33697;BME280;20031;43.416;23.232;2023-03-11T03:24:29;98059.66;;;11.11;90.52
33697;BME280;20031;43.416;23.232;2023-03-11T03:26:55;98059.28;;;11.08;90.39
33697;BME280;20031;43.416;23.232;2023-03-11T03:29:20;98062.09;;;11.06;90.56
33697;BME280;20031;43.416;23.232;2023-03-11T03:31:46;98067.50;;;11.05;90.31
33697;BME280;20031;43.416;23.232;2023-03-11T03:34:11;98065.09;;;11.03;90.78
33697;BME280;20031;43.416;23.232;2023-03-11T03:36:37;98069.72;;;11.01;90.52
33697;BME280;20031;43.416;23.232;2023-03-11T03:39:02;98067.13;;;11.01;90.51
33697;BME280;20031;43.416;23.232;2023-03-11T03:41:28;98074.34;;;10.99;90.74
33697;BME280;20031;43.416;23.232;2023-03-11T03:43:53;98071.16;;;10.97;90.90
33697;BME280;20031;43.416;23.232;2023-03-11T03:46:20;98075.78;;;10.95;90.99
33697;BME280;20031;43.416;23.232;2023-03-11T03:48:45;98085.59;;;10.93;90.69
33697;BME280;20031;43.416;23.232;2023-03-11T03:51:12;98090.22;;;10.91;90.80
33697;BME280;20031;43.416;23.232;2023-03-11T03:53:39;98086.81;;;10.91;91.07
33697;BME280;20031;43.416;23.232;2023-03-11T03:56:06;98088.59;;;10.90;90.99
33697;BME280;20031;43.416;23.232;2023-03-11T03:58:32;98088.81;;;10.89;91.19
33697;BME280;20031;43.416;23.232;2023-03-11T04:00:57;98092.44;;;10.88;91.45
33697;BME280;20031;43.416;23.232;2023-03-11T04:03:24;98083.03;;;10.87;91.38
33697;BME280;20031;43.416;23.232;2023-03-11T04:05:50;98087.44;;;10.86;91.49
33697;BME280;20031;43.416;23.232;2023-03-11T04:08:15;98087.63;;;10.85;91.81
33697;BME280;20031;43.416;23.232;2023-03-11T04:10:41;98088.44;;;10.85;91.83
33697;BME280;20031;43.416;23.232;2023-03-11T04:13:06;98082.44;;;10.85;92.14
33697;BME280;20031;43.416;23.232;2023-03-11T04:15:31;98080.84;;;10.84;91.74
33697;BME280;20031;43.416;23.232;2023-03-11T04:17:57;98077.44;;;10.83;92.03
33697;BME280;20031;43.416;23.232;2023-03-11T04:20:22;98073.25;;;10.82;92.10
33697;BME280;20031;43.416;23.232;2023-03-11T04:22:48;98073.81;;;10.84;92.71
33697;BME280;20031;43.416;23.232;2023-03-11T04:25:13;98073.03;;;10.84;92.38
33697;BME280;20031;43.416;23.232;2023-03-11T04:27:39;98079.25;;;10.83;92.39
33697;BME280;20031;43.416;23.232;2023-03-11T04:30:08;98080.44;;;10.80;92.40
33697;BME280;20031;43.416;23.232;2023-03-11T04:32:34;98070.25;;;10.79;92.64
33697;BME280;20031;43.416;23.232;2023-03-11T04:34:59;98068.88;;;10.76;92.69
33697;BME280;20031;43.416;23.232;2023-03-11T04:37:28;98089.09;;;10.74;92.85
33697;BME280;20031;43.416;23.232;2023-03-11T04:39:54;98078.69;;;10.74;92.69
33697;BME280;20031;43.416;23.232;2023-03-11T04:42:20;98074.09;;;10.76;92.93
33697;BME280;20031;43.416;23.232;2023-03-11T04:44:45;98079.69;;;10.73;92.92
33697;BME280;20031;43.416;23.232;2023-03-11T04:47:10;98073.69;;;10.73;93.28
33697;BME280;20031;43.416;23.232;2023-03-11T04:49:36;98084.09;;;10.73;93.36
33697;BME280;20031;43.416;23.232;2023-03-11T04:52:01;98088.50;;;10.72;93.02
33697;BME280;20031;43.416;23.232;2023-03-11T04:54:27;98086.50;;;10.74;93.56
33697;BME280;20031;43.416;23.232;2023-03-11T04:56:52;98089.72;;;10.76;93.87
33697;BME280;20031;43.416;23.232;2023-03-11T04:59:18;98068.66;;;10.78;93.52
33697;BME280;20031;43.416;23.232;2023-03-11T05:01:43;98074.66;;;10.78;93.44
33697;BME280;20031;43.416;23.232;2023-03-11T05:04:09;98079.88;;;10.78;93.68
33697;BME280;20031;43.416;23.232;2023-03-11T05:06:35;98087.69;;;10.78;93.60
33697;BME280;20031;43.416;23.232;2023-03-11T05:09:00;98097.09;;;10.79;93.61
33697;BME280;20031;43.416;23.232;2023-03-11T05:11:26;98098.88;;;10.79;93.56
33697;BME280;20031;43.416;23.232;2023-03-11T05:13:51;98105.91;;;10.78;93.85
33697;BME280;20031;43.416;23.232;2023-03-11T05:16:17;98104.91;;;10.79;94.23
33697;BME280;20031;43.416;23.232;2023-03-11T05:18:42;98101.88;;;10.82;94.20
33697;BME280;20031;43.416;23.232;2023-03-11T05:21:07;98101.69;;;10.84;93.92
33697;BME280;20031;43.416;23.232;2023-03-11T05:23:33;98097.06;;;10.86;94.21
33697;BME280;20031;43.416;23.232;2023-03-11T05:25:58;98096.06;;;10.87;94.09
33697;BME280;20031;43.416;23.232;2023-03-11T05:28:24;98104.44;;;10.89;94.12
33697;BME280;20031;43.416;23.232;2023-03-11T05:30:49;98102.66;;;10.89;94.22
33697;BME280;20031;43.416;23.232;2023-03-11T05:33:15;98095.84;;;10.88;93.99
33697;BME280;20031;43.416;23.232;2023-03-11T05:35:40;98107.06;;;10.89;94.04
33697;BME280;20031;43.416;23.232;2023-03-11T05:38:07;98100.88;;;10.83;93.89
33697;BME280;20031;43.416;23.232;2023-03-11T05:40:32;98099.88;;;10.84;93.86
33697;BME280;20031;43.416;23.232;2023-03-11T05:42:57;98105.84;;;10.85;94.12
33697;BME280;20031;43.416;23.232;2023-03-11T05:45:23;98113.06;;;10.89;94.23
33697;BME280;20031;43.416;23.232;2023-03-11T05:47:50;98115.84;;;10.94;94.26
33697;BME280;20031;43.416;23.232;2023-03-11T05:50:16;98117.03;;;10.98;93.74
33697;BME280;20031;43.416;23.232;2023-03-11T05:52:42;98122.81;;;11.00;93.40
33697;BME280;20031;43.416;23.232;2023-03-11T05:55:08;98118.59;;;11.06;93.69
33697;BME280;20031;43.416;23.232;2023-03-11T05:57:35;98128.16;;;11.12;93.43
33697;BME280;20031;43.416;23.232;2023-03-11T06:00:02;98128.94;;;11.18;93.71
33697;BME280;20031;43.416;23.232;2023-03-11T06:02:29;98127.09;;;11.25;93.80
33697;BME280;20031;43.416;23.232;2023-03-11T06:04:55;98120.81;;;11.33;93.28
33697;BME280;20031;43.416;23.232;2023-03-11T06:07:20;98120.59;;;11.41;93.32
33697;BME280;20031;43.416;23.232;2023-03-11T06:09:49;98116.72;;;11.50;92.97
33697;BME280;20031;43.416;23.232;2023-03-11T06:12:14;98107.28;;;11.55;92.42
33697;BME280;20031;43.416;23.232;2023-03-11T06:14:40;98122.13;;;11.55;92.15
33697;BME280;20031;43.416;23.232;2023-03-11T06:17:05;98122.28;;;11.60;92.12
33697;BME280;20031;43.416;23.232;2023-03-11T06:19:31;98134.06;;;11.69;91.64
33697;BME280;20031;43.416;23.232;2023-03-11T06:21:56;98134.22;;;11.73;91.20
33697;BME280;20031;43.416;23.232;2023-03-11T06:24:21;98147.44;;;11.78;90.52
33697;BME280;20031;43.416;23.232;2023-03-11T06:26:50;98140.13;;;11.87;90.14
33697;BME280;20031;43.416;23.232;2023-03-11T06:29:16;98147.31;;;11.91;89.80
33697;BME280;20031;43.416;23.232;2023-03-11T06:31:41;98153.13;;;11.93;89.53
33697;BME280;20031;43.416;23.232;2023-03-11T06:34:08;98157.47;;;11.99;89.17
33697;BME280;20031;43.416;23.232;2023-03-11T06:36:34;98143.00;;;12.03;88.85
33697;BME280;20031;43.416;23.232;2023-03-11T06:38:59;98143.56;;;12.05;88.76
33697;BME280;20031;43.416;23.232;2023-03-11T06:41:25;98137.41;;;12.00;88.33
33697;BME280;20031;43.416;23.232;2023-03-11T06:43:50;98137.63;;;11.98;88.17
33697;BME280;20031;43.416;23.232;2023-03-11T06:46:18;98135.59;;;12.00;88.06
33697;BME280;20031;43.416;23.232;2023-03-11T06:48:44;98122.28;;;12.08;87.83
33697;BME280;20031;43.416;23.232;2023-03-11T06:51:11;98127.00;;;12.18;88.19
33697;BME280;20031;43.416;23.232;2023-03-11T06:53:36;98113.69;;;12.25;87.68
33697;BME280;20031;43.416;23.232;2023-03-11T06:56:07;98114.03;;;12.29;87.31
33697;BME280;20031;43.416;23.232;2023-03-11T06:58:35;98125.81;;;12.38;87.03
33697;BME280;20031;43.416;23.232;2023-03-11T07:01:03;98121.47;;;12.50;86.65
33697;BME280;20031;43.416;23.232;2023-03-11T07:03:29;98129.00;;;12.58;85.94
33697;BME280;20031;43.416;23.232;2023-03-11T07:05:56;98115.22;;;12.69;85.94
33697;BME280;20031;43.416;23.232;2023-03-11T07:08:22;98116.66;;;12.82;85.82
33697;BME280;20031;43.416;23.232;2023-03-11T07:11:01;98117.97;;;12.91;85.31
33697;BME280;20031;43.416;23.232;2023-03-11T07:13:27;98119.41;;;13.05;85.32
33697;BME280;20031;43.416;23.232;2023-03-11T07:16:06;98114.59;;;13.20;85.02
33697;BME280;20031;43.416;23.232;2023-03-11T07:18:33;98121.53;;;13.26;84.57
33697;BME280;20031;43.416;23.232;2023-03-11T07:21:04;98111.41;;;13.59;84.80
33697;BME280;20031;43.416;23.232;2023-03-11T07:23:30;98109.16;;;13.85;83.30
33697;BME280;20031;43.416;23.232;2023-03-11T07:25:55;98106.44;;;14.37;82.83
33697;BME280;20031;43.416;23.232;2023-03-11T07:28:25;98101.91;;;14.94;81.53
33697;BME280;20031;43.416;23.232;2023-03-11T07:30:51;98095.38;;;15.52;79.22
33697;BME280;20031;43.416;23.232;2023-03-11T07:33:17;98098.72;;;15.81;74.57
33697;BME280;20031;43.416;23.232;2023-03-11T07:35:43;98096.50;;;16.05;71.41
33697;BME280;20031;43.416;23.232;2023-03-11T07:38:09;98096.69;;;16.20;68.32
33697;BME280;20031;43.416;23.232;2023-03-11T07:40:35;98086.72;;;16.55;67.41
33697;BME280;20031;43.416;23.232;2023-03-11T07:43:00;98084.13;;;16.60;66.50
33697;BME280;20031;43.416;23.232;2023-03-11T07:45:26;98072.91;;;16.86;64.78
33697;BME280;20031;43.416;23.232;2023-03-11T07:47:51;98076.38;;;16.70;63.35
33697;BME280;20031;43.416;23.232;2023-03-11T07:50:17;98069.81;;;16.51;61.81
33697;BME280;20031;43.416;23.232;2023-03-11T07:52:43;98063.69;;;16.24;61.29
33697;BME280;20031;43.416;23.232;2023-03-11T07:55:09;98055.44;;;15.99;61.15
33697;BME280;20031;43.416;23.232;2023-03-11T07:57:34;98053.09;;;16.19;59.89
33697;BME280;20031;43.416;23.232;2023-03-11T08:00:00;98055.56;;;16.68;59.77
33697;BME280;20031;43.416;23.232;2023-03-11T08:02:26;98048.31;;;16.54;56.69
33697;BME280;20031;43.416;23.232;2023-03-11T08:04:51;98044.41;;;16.78;57.99
33697;BME280;20031;43.416;23.232;2023-03-11T08:07:17;98034.53;;;17.16;56.83
33697;BME280;20031;43.416;23.232;2023-03-11T08:09:42;98028.22;;;17.43;54.87
33697;BME280;20031;43.416;23.232;2023-03-11T08:12:08;98022.44;;;17.77;54.43
33697;BME280;20031;43.416;23.232;2023-03-11T08:14:34;98026.56;;;18.04;53.96
33697;BME280;20031;43.416;23.232;2023-03-11T08:16:59;98023.03;;;18.25;52.54
33697;BME280;20031;43.416;23.232;2023-03-11T08:19:24;98016.53;;;18.47;51.92
33697;BME280;20031;43.416;23.232;2023-03-11T08:21:50;98016.41;;;18.89;51.30
33697;BME280;20031;43.416;23.232;2023-03-11T08:24:15;98018.00;;;18.90;51.16
33697;BME280;20031;43.416;23.232;2023-03-11T08:26:41;98017.75;;;18.91;50.38
33697;BME280;20031;43.416;23.232;2023-03-11T08:29:07;98017.69;;;18.71;49.69
33697;BME280;20031;43.416;23.232;2023-03-11T08:31:33;98019.56;;;18.91;50.06
33697;BME280;20031;43.416;23.232;2023-03-11T08:34:08;98011.75;;;19.50;50.23
33697;BME280;20031;43.416;23.232;2023-03-11T08:36:34;98004.34;;;19.82;48.65
33697;BME280;20031;43.416;23.232;2023-03-11T08:38:59;98001.41;;;20.08;48.45
33697;BME280;20031;43.416;23.232;2023-03-11T08:41:26;98005.38;;;20.05;46.66
33697;BME280;20031;43.416;23.232;2023-03-11T08:43:52;98002.25;;;19.94;46.02
33697;BME280;20031;43.416;23.232;2023-03-11T08:46:30;97995.63;;;19.86;46.13
33697;BME280;20031;43.416;23.232;2023-03-11T08:48:57;97999.09;;;19.37;47.01
33697;BME280;20031;43.416;23.232;2023-03-11T08:51:23;97996.16;;;19.04;46.90
33697;BME280;20031;43.416;23.232;2023-03-11T08:53:49;97994.66;;;18.52;47.40
33697;BME280;20031;43.416;23.232;2023-03-11T08:56:15;97988.09;;;18.03;47.79
33697;BME280;20031;43.416;23.232;2023-03-11T08:58:41;97997.72;;;17.83;48.59
33697;BME280;20031;43.416;23.232;2023-03-11T09:01:06;97994.09;;;17.94;49.09
33697;BME280;20031;43.416;23.232;2023-03-11T09:03:34;97999.00;;;17.76;47.62
33697;BME280;20031;43.416;23.232;2023-03-11T09:06:01;97991.13;;;17.44;48.06
33697;BME280;20031;43.416;23.232;2023-03-11T09:08:28;97989.72;;;17.32;48.57
33697;BME280;20031;43.416;23.232;2023-03-11T09:10:53;97992.53;;;16.99;48.74
33697;BME280;20031;43.416;23.232;2023-03-11T09:13:20;97993.91;;;16.76;48.98
33697;BME280;20031;43.416;23.232;2023-03-11T09:15:47;97992.38;;;16.58;49.36
33697;BME280;20031;43.416;23.232;2023-03-11T09:18:14;97993.09;;;16.75;49.94
33697;BME280;20031;43.416;23.232;2023-03-11T09:20:41;97976.34;;;17.12;49.57
33697;BME280;20031;43.416;23.232;2023-03-11T09:23:08;97978.56;;;17.51;49.23
33697;BME280;20031;43.416;23.232;2023-03-11T09:25:34;97961.25;;;18.06;48.55
33697;BME280;20031;43.416;23.232;2023-03-11T09:27:59;97964.34;;;18.49;47.38
33697;BME280;20031;43.416;23.232;2023-03-11T09:30:25;97957.81;;;18.72;45.57
33697;BME280;20031;43.416;23.232;2023-03-11T09:32:50;97963.44;;;19.15;43.56
33697;BME280;20031;43.416;23.232;2023-03-11T09:35:16;97964.22;;;19.60;43.18
33697;BME280;20031;43.416;23.232;2023-03-11T09:37:41;97954.16;;;19.72;41.34
33697;BME280;20031;43.416;23.232;2023-03-11T09:40:07;97960.16;;;20.12;41.13
33697;BME280;20031;43.416;23.232;2023-03-11T09:45:44;97968.72;;;19.49;40.03
33697;BME280;20031;43.416;23.232;2023-03-11T09:51:16;97967.53;;;18.51;41.70
33697;BME280;20031;43.416;23.232;2023-03-11T09:53:49;97974.06;;;18.44;41.55
33697;BME280;20031;43.416;23.232;2023-03-11T09:56:20;97976.63;;;18.19;42.29
33697;BME280;20031;43.416;23.232;2023-03-11T09:58:48;97968.53;;;17.89;43.71
33697;BME280;20031;43.416;23.232;2023-03-11T10:01:25;97986.06;;;17.69;45.99
33697;BME280;20031;43.416;23.232;2023-03-11T10:03:54;97978.13;;;17.28;46.85
33697;BME280;20031;43.416;23.232;2023-03-11T10:06:27;97975.28;;;17.08;47.60
33697;BME280;20031;43.416;23.232;2023-03-11T10:11:56;97978.56;;;16.94;48.08
33697;BME280;20031;43.416;23.232;2023-03-11T10:19:54;97970.50;;;18.85;45.06
33697;BME280;20031;43.416;23.232;2023-03-11T10:25:27;97958.50;;;20.31;39.73
33697;BME280;20031;43.416;23.232;2023-03-11T10:27:59;97950.50;;;20.46;38.92
33697;BME280;20031;43.416;23.232;2023-03-11T10:30:42;97954.66;;;19.98;39.04
33697;BME280;20031;43.416;23.232;2023-03-11T10:36:05;97941.06;;;20.25;37.97
33697;BME280;20031;43.416;23.232;2023-03-11T10:38:41;97941.47;;;19.79;37.17
33697;BME280;20031;43.416;23.232;2023-03-11T10:41:31;97941.53;;;19.59;38.53
33697;BME280;20031;43.416;23.232;2023-03-11T10:44:39;97946.19;;;19.97;36.85
33697;BME280;20031;43.416;23.232;2023-03-11T10:47:14;97931.91;;;20.02;36.85
33697;BME280;20031;43.416;23.232;2023-03-11T10:49:41;97937.69;;;20.09;37.55
33697;BME280;20031;43.416;23.232;2023-03-11T10:52:06;97944.50;;;20.30;38.01
33697;BME280;20031;43.416;23.232;2023-03-11T10:54:38;97936.53;;;20.35;38.49
33697;BME280;20031;43.416;23.232;2023-03-11T10:57:27;97946.13;;;20.21;38.95
33697;BME280;20031;43.416;23.232;2023-03-11T10:59:55;97943.00;;;20.04;40.06
33697;BME280;20031;43.416;23.232;2023-03-11T11:07:42;97939.38;;;19.71;40.16
33697;BME280;20031;43.416;23.232;2023-03-11T11:12:37;97927.00;;;19.32;41.79
33697;BME280;20031;43.416;23.232;2023-03-11T11:15:54;97931.75;;;19.44;41.17
33697;BME280;20031;43.416;23.232;2023-03-11T11:21:05;97948.91;;;19.37;41.63
33697;BME280;20031;43.416;23.232;2023-03-11T11:24:07;97953.63;;;18.91;43.70
33697;BME280;20031;43.416;23.232;2023-03-11T11:26:34;97963.00;;;18.42;47.27
33697;BME280;20031;43.416;23.232;2023-03-11T11:31:35;97969.63;;;17.98;51.63
33697;BME280;20031;43.416;23.232;2023-03-11T11:34:01;97968.50;;;18.31;52.96
33697;BME280;20031;43.416;23.232;2023-03-11T11:36:29;97966.41;;;17.87;53.59
33697;BME280;20031;43.416;23.232;2023-03-11T11:38:55;97956.72;;;17.51;53.88
33697;BME280;20031;43.416;23.232;2023-03-11T11:41:25;97959.34;;;17.51;53.73
33697;BME280;20031;43.416;23.232;2023-03-11T11:43:53;97954.03;;;17.46;53.61
33697;BME280;20031;43.416;23.232;2023-03-11T11:46:46;97950.72;;;16.98;53.23
33697;BME280;20031;43.416;23.232;2023-03-11T11:49:28;97964.38;;;16.69;55.12
33697;BME280;20031;43.416;23.232;2023-03-11T11:55:04;97963.63;;;16.26;57.16
33697;BME280;20031;43.416;23.232;2023-03-11T11:57:32;97951.28;;;16.26;58.16
33697;BME280;20031;43.416;23.232;2023-03-11T11:59:58;97956.28;;;16.06;57.68
33697;BME280;20031;43.416;23.232;2023-03-11T12:02:51;97954.13;;;15.82;57.79
33697;BME280;20031;43.416;23.232;2023-03-11T12:05:30;97966.25;;;15.67;58.98
33697;BME280;20031;43.416;23.232;2023-03-11T12:10:56;97951.91;;;15.74;59.67
33697;BME280;20031;43.416;23.232;2023-03-11T12:26:49;97980.81;;;15.79;57.51
33697;BME280;20031;43.416;23.232;2023-03-11T12:29:29;97993.22;;;15.62;56.50
33697;BME280;20031;43.416;23.232;2023-03-11T12:31:58;98002.19;;;15.50;56.16
33697;BME280;20031;43.416;23.232;2023-03-11T12:34:24;98004.72;;;15.45;56.66
33697;BME280;20031;43.416;23.232;2023-03-11T12:36:59;98011.81;;;15.44;56.95
33697;BME280;20031;43.416;23.232;2023-03-11T12:42:22;98024.75;;;15.51;56.97
33697;BME280;20031;43.416;23.232;2023-03-11T12:44:51;98034.63;;;15.60;56.17
33697;BME280;20031;43.416;23.232;2023-03-11T12:47:23;98034.38;;;15.62;55.93
33697;BME280;20031;43.416;23.232;2023-03-11T12:50:36;98048.38;;;15.67;55.65
33697;BME280;20031;43.416;23.232;2023-03-11T12:52:51;98046.53;;;15.68;55.69
33697;BME280;20031;43.416;23.232;2023-03-11T13:00:34;98058.97;;;15.72;55.90
33697;BME280;20031;43.416;23.232;2023-03-11T13:11:00;98079.81;;;15.62;56.36
33697;BME280;20031;43.416;23.232;2023-03-11T13:13:29;98066.97;;;15.49;56.04
33697;BME280;20031;43.416;23.232;2023-03-11T13:15:57;98075.06;;;15.48;56.54
33697;BME280;20031;43.416;23.232;2023-03-11T13:18:44;98087.88;;;15.44;55.77
33697;BME280;20031;43.416;23.232;2023-03-11T13:23:52;98106.84;;;15.19;56.56
33697;BME280;20031;43.416;23.232;2023-03-11T13:26:51;98111.06;;;15.08;57.21
33697;BME280;20031;43.416;23.232;2023-03-11T13:38:16;98138.81;;;14.93;55.14
33697;BME280;20031;43.416;23.232;2023-03-11T13:40:45;98134.06;;;14.78;54.55
33697;BME280;20031;43.416;23.232;2023-03-11T13:43:16;98136.69;;;14.67;54.76
33697;BME280;20031;43.416;23.232;2023-03-11T13:45:50;98144.03;;;14.54;55.24
33697;BME280;20031;43.416;23.232;2023-03-11T13:48:20;98162.59;;;14.41;55.44
33697;BME280;20031;43.416;23.232;2023-03-11T13:51:07;98194.25;;;14.17;55.66
33697;BME280;20031;43.416;23.232;2023-03-11T13:53:43;98185.75;;;14.03;55.84
33697;BME280;20031;43.416;23.232;2023-03-11T13:56:26;98201.22;;;13.93;55.16
33697;BME280;20031;43.416;23.232;2023-03-11T13:58:52;98210.94;;;13.75;54.48
33697;BME280;20031;43.416;23.232;2023-03-11T14:01:18;98214.41;;;13.58;54.14
33697;BME280;20031;43.416;23.232;2023-03-11T14:03:45;98237.34;;;13.44;54.43
33697;BME280;20031;43.416;23.232;2023-03-11T14:06:14;98234.06;;;13.31;54.76
33697;BME280;20031;43.416;23.232;2023-03-11T14:08:40;98229.00;;;13.18;55.03
33697;BME280;20031;43.416;23.232;2023-03-11T14:13:41;98265.16;;;12.85;54.41
33697;BME280;20031;43.416;23.232;2023-03-11T14:16:36;98271.59;;;12.59;54.16
33697;BME280;20031;43.416;23.232;2023-03-11T14:19:16;98267.03;;;12.30;54.59
33697;BME280;20031;43.416;23.232;2023-03-11T14:21:42;98286.19;;;12.18;54.75
33697;BME280;20031;43.416;23.232;2023-03-11T14:24:15;98304.59;;;11.98;54.60
33697;BME280;20031;43.416;23.232;2023-03-11T14:26:41;98297.09;;;11.77;54.84